sensor_id;sensor_type;location;lat;lon;timestamp;P1;durP1;ratioP1;P2;durP2;ratioP2
33579;SDS011;19909;43.644;-79.438;2023-02-28T00:01:43;0.50;;;0.20;;
33579;SDS011;19909;43.644;-79.438;2023-02-28T00:04:09;0.88;;;0.40;;
33579;SDS011;19909;43.644;-79.438;2023-02-28T00:06:35;0.25;;;0.20;;
33579;SDS011;19909;43.644;-79.438;2023-02-28T00:09:02;0.65;;;0.30;;
33579;SDS011;19909;43.644;-79.438;2023-02-28T00:11:28;0.63;;;0.30;;
33579;SDS011;19909;43.644;-79.438;2023-02-28T00:13:55;0.52;;;0.40;;
33579;SDS011;19909;43.644;-79.438;2023-02-28T00:16:21;0.63;;;0.30;;
33579;SDS011;19909;43.644;-79.438;2023-02-28T00:18:48;0.63;;;0.30;;
33579;SDS011;19909;43.644;-79.438;2023-02-28T00:21:15;0.70;;;0.43;;
33579;SDS011;19909;43.644;-79.438;2023-02-28T00:23:42;0.45;;;0.25;;
33579;SDS011;19909;43.644;-79.438;2023-02-28T00:26:08;0.90;;;0.50;;
33579;SDS011;19909;43.644;-79.438;2023-02-28T00:28:35;0.73;;;0.60;;
33579;SDS011;19909;43.644;-79.438;2023-02-28T00:31:02;1.13;;;0.50;;
33579;SDS011;19909;43.644;-79.438;2023-02-28T00:33:28;0.77;;;0.52;;
33579;SDS011;19909;43.644;-79.438;2023-02-28T00:36:04;0.82;;;0.60;;
33579;SDS011;19909;43.644;-79.438;2023-02-28T00:38:33;0.88;;;0.50;;
33579;SDS011;19909;43.644;-79.438;2023-02-28T00:40:59;1.05;;;0.50;;
33579;SDS011;19909;43.644;-79.438;2023-02-28T00:43:30;1.58;;;0.55;;
33579;SDS011;19909;43.644;-79.438;2023-02-28T00:45:57;0.70;;;0.40;;
33579;SDS011;19909;43.644;-79.438;2023-02-28T00:48:23;1.15;;;0.63;;
33579;SDS011;19909;43.644;-79.438;2023-02-28T00:50:49;0.70;;;0.50;;
33579;SDS011;19909;43.644;-79.438;2023-02-28T00:53:15;0.93;;;0.65;;
33579;SDS011;19909;43.644;-79.438;2023-02-28T00:55:41;0.40;;;0.30;;
33579;SDS011;19909;43.644;-79.438;2023-02-28T00:58:07;0.98;;;0.70;;
33579;SDS011;19909;43.644;-79.438;2023-02-28T01:00:33;0.85;;;0.57;;
33579;SDS011;19909;43.644;-79.438;2023-02-28T01:03:00;1.00;;;0.50;;
33579;SDS011;19909;43.644;-79.438;2023-02-28T01:05:26;0.57;;;0.47;;
33579;SDS011;19909;43.644;-79.438;2023-02-28T01:07:52;2.10;;;0.77;;
33579;SDS011;19909;43.644;-79.438;2023-02-28T01:10:18;0.52;;;0.30;;
33579;SDS011;19909;43.644;-79.438;2023-02-28T01:12:45;0.52;;;0.40;;
33579;SDS011;19909;43.644;-79.438;2023-02-28T01:15:12;0.70;;;0.52;;
33579;SDS011;19909;43.644;-79.438;2023-02-28T01:17:38;0.63;;;0.40;;
33579;SDS011;19909;43.644;-79.438;2023-02-28T01:20:05;1.20;;;0.65;;
33579;SDS011;19909;43.644;-79.438;2023-02-28T01:22:32;0.95;;;0.40;;
33579;SDS011;19909;43.644;-79.438;2023-02-28T01:25:00;0.73;;;0.45;;
33579;SDS011;19909;43.644;-79.438;2023-02-28T01:27:27;0.60;;;0.50;;
33579;SDS011;19909;43.644;-79.438;2023-02-28T01:29:54;0.80;;;0.50;;
33579;SDS011;19909;43.644;-79.438;2023-02-28T01:32:20;0.50;;;0.30;;
33579;SDS011;19909;43.644;-79.438;2023-02-28T01:34:46;0.40;;;0.30;;
33579;SDS011;19909;43.644;-79.438;2023-02-28T01:37:12;0.90;;;0.50;;
33579;SDS011;19909;43.644;-79.438;2023-02-28T01:39:39;0.57;;;0.35;;
33579;SDS011;19909;43.644;-79.438;2023-02-28T01:42:05;0.50;;;0.38;;
33579;SDS011;19909;43.644;-79.438;2023-02-28T01:47:38;0.50;;;0.30;;
33579;SDS011;19909;43.644;-79.438;2023-02-28T01:50:09;0.40;;;0.30;;
33579;SDS011;19909;43.644;-79.438;2023-02-28T01:52:43;0.50;;;0.30;;
33579;SDS011;19909;43.644;-79.438;2023-02-28T01:55:10;0.20;;;0.20;;
33579;SDS011;19909;43.644;-79.438;2023-02-28T01:57:40;0.60;;;0.30;;
33579;SDS011;19909;43.644;-79.438;2023-02-28T02:02:42;0.47;;;0.28;;
33579;SDS011;19909;43.644;-79.438;2023-02-28T02:07:48;0.38;;;0.30;;
33579;SDS011;19909;43.644;-79.438;2023-02-28T02:10:30;0.10;;;0.10;;
33579;SDS011;19909;43.644;-79.438;2023-02-28T02:19:08;0.47;;;0.20;;
33579;SDS011;19909;43.644;-79.438;2023-02-28T02:32:49;0.38;;;0.20;;
33579;SDS011;19909;43.644;-79.438;2023-02-28T02:41:12;0.60;;;0.40;;
33579;SDS011;19909;43.644;-79.438;2023-02-28T02:46:48;1.10;;;0.40;;
33579;SDS011;19909;43.644;-79.438;2023-02-28T02:49:21;0.70;;;0.50;;
33579;SDS011;19909;43.644;-79.438;2023-02-28T02:51:54;0.70;;;0.55;;
33579;SDS011;19909;43.644;-79.438;2023-02-28T02:54:25;0.60;;;0.40;;
33579;SDS011;19909;43.644;-79.438;2023-02-28T02:57:01;0.80;;;0.40;;
33579;SDS011;19909;43.644;-79.438;2023-02-28T02:59:35;0.95;;;0.50;;
33579;SDS011;19909;43.644;-79.438;2023-02-28T03:02:04;0.45;;;0.28;;
33579;SDS011;19909;43.644;-79.438;2023-02-28T03:04:48;0.65;;;0.50;;
33579;SDS011;19909;43.644;-79.438;2023-02-28T03:07:25;0.43;;;0.28;;
33579;SDS011;19909;43.644;-79.438;2023-02-28T03:09:53;0.65;;;0.40;;
33579;SDS011;19909;43.644;-79.438;2023-02-28T03:12:21;0.38;;;0.35;;
33579;SDS011;19909;43.644;-79.438;2023-02-28T03:15:02;0.28;;;0.22;;
33579;SDS011;19909;43.644;-79.438;2023-02-28T03:20:32;1.85;;;0.30;;
33579;SDS011;19909;43.644;-79.438;2023-02-28T03:33:43;0.47;;;0.38;;
33579;SDS011;19909;43.644;-79.438;2023-02-28T03:36:20;0.88;;;0.30;;
33579;SDS011;19909;43.644;-79.438;2023-02-28T03:39:00;0.30;;;0.20;;
33579;SDS011;19909;43.644;-79.438;2023-02-28T03:41:38;0.30;;;0.20;;
33579;SDS011;19909;43.644;-79.438;2023-02-28T03:44:30;0.60;;;0.20;;
33579;SDS011;19909;43.644;-79.438;2023-02-28T03:49:53;0.10;;;0.10;;
33579;SDS011;19909;43.644;-79.438;2023-02-28T03:52:27;1.02;;;0.20;;
33579;SDS011;19909;43.644;-79.438;2023-02-28T03:54:59;0.20;;;0.20;;
33579;SDS011;19909;43.644;-79.438;2023-02-28T03:57:34;0.30;;;0.10;;
33579;SDS011;19909;43.644;-79.438;2023-02-28T04:00:14;0.43;;;0.20;;
33579;SDS011;19909;43.644;-79.438;2023-02-28T04:02:45;0.28;;;0.10;;
33579;SDS011;19909;43.644;-79.438;2023-02-28T04:05:11;0.20;;;0.10;;
33579;SDS011;19909;43.644;-79.438;2023-02-28T04:07:38;0.22;;;0.15;;
33579;SDS011;19909;43.644;-79.438;2023-02-28T04:10:04;0.17;;;0.10;;
33579;SDS011;19909;43.644;-79.438;2023-02-28T04:12:31;0.20;;;0.10;;
33579;SDS011;19909;43.644;-79.438;2023-02-28T04:14:57;0.43;;;0.20;;
33579;SDS011;19909;43.644;-79.438;2023-02-28T04:17:24;0.38;;;0.20;;
33579;SDS011;19909;43.644;-79.438;2023-02-28T04:19:50;0.52;;;0.20;;
33579;SDS011;19909;43.644;-79.438;2023-02-28T04:22:16;0.10;;;0.10;;
33579;SDS011;19909;43.644;-79.438;2023-02-28T04:24:42;0.30;;;0.20;;
33579;SDS011;19909;43.644;-79.438;2023-02-28T04:27:09;0.30;;;0.20;;
33579;SDS011;19909;43.644;-79.438;2023-02-28T04:29:35;0.20;;;0.10;;
33579;SDS011;19909;43.644;-79.438;2023-02-28T04:32:02;0.20;;;0.20;;
33579;SDS011;19909;43.644;-79.438;2023-02-28T04:34:29;0.30;;;0.10;;
33579;SDS011;19909;43.644;-79.438;2023-02-28T04:36:56;0.25;;;0.20;;
33579;SDS011;19909;43.644;-79.438;2023-02-28T04:39:23;0.40;;;0.30;;
33579;SDS011;19909;43.644;-79.438;2023-02-28T04:41:50;0.57;;;0.40;;
33579;SDS011;19909;43.644;-79.438;2023-02-28T04:44:16;0.57;;;0.35;;
33579;SDS011;19909;43.644;-79.438;2023-02-28T04:46:43;0.60;;;0.43;;
33579;SDS011;19909;43.644;-79.438;2023-02-28T04:49:12;0.88;;;0.50;;
33579;SDS011;19909;43.644;-79.438;2023-02-28T04:51:39;0.30;;;0.30;;
33579;SDS011;19909;43.644;-79.438;2023-02-28T04:54:06;0.68;;;0.60;;
33579;SDS011;19909;43.644;-79.438;2023-02-28T04:56:33;0.30;;;0.30;;
33579;SDS011;19909;43.644;-79.438;2023-02-28T04:58:59;0.28;;;0.20;;
33579;SDS011;19909;43.644;-79.438;2023-02-28T05:01:27;0.30;;;0.20;;
33579;SDS011;19909;43.644;-79.438;2023-02-28T05:03:56;0.47;;;0.20;;
33579;SDS011;19909;43.644;-79.438;2023-02-28T05:06:24;0.68;;;0.30;;
33579;SDS011;19909;43.644;-79.438;2023-02-28T05:08:52;0.30;;;0.20;;
33579;SDS011;19909;43.644;-79.438;2023-02-28T05:11:21;0.08;;;0.08;;
33579;SDS011;19909;43.644;-79.438;2023-02-28T05:13:51;0.40;;;0.30;;
33579;SDS011;19909;43.644;-79.438;2023-02-28T05:16:18;0.38;;;0.30;;
33579;SDS011;19909;43.644;-79.438;2023-02-28T05:18:44;0.85;;;0.20;;
33579;SDS011;19909;43.644;-79.438;2023-02-28T05:21:48;0.25;;;0.20;;
33579;SDS011;19909;43.644;-79.438;2023-02-28T05:24:13;0.20;;;0.10;;
33579;SDS011;19909;43.644;-79.438;2023-02-28T05:26:40;0.20;;;0.20;;
33579;SDS011;19909;43.644;-79.438;2023-02-28T05:29:08;0.10;;;0.10;;
33579;SDS011;19909;43.644;-79.438;2023-02-28T05:31:35;0.20;;;0.20;;
33579;SDS011;19909;43.644;-79.438;2023-02-28T05:34:01;0.28;;;0.20;;
33579;SDS011;19909;43.644;-79.438;2023-02-28T05:36:29;0.22;;;0.10;;
33579;SDS011;19909;43.644;-79.438;2023-02-28T05:38:55;0.35;;;0.20;;
33579;SDS011;19909;43.644;-79.438;2023-02-28T05:41:21;0.30;;;0.10;;
33579;SDS011;19909;43.644;-79.438;2023-02-28T05:43:48;0.80;;;0.35;;
33579;SDS011;19909;43.644;-79.438;2023-02-28T05:46:14;0.32;;;0.25;;
33579;SDS011;19909;43.644;-79.438;2023-02-28T05:48:41;0.35;;;0.10;;
33579;SDS011;19909;43.644;-79.438;2023-02-28T05:51:08;0.20;;;0.10;;
33579;SDS011;19909;43.644;-79.438;2023-02-28T05:53:34;0.30;;;0.10;;
33579;SDS011;19909;43.644;-79.438;2023-02-28T05:56:01;0.35;;;0.20;;
33579;SDS011;19909;43.644;-79.438;2023-02-28T05:58:28;0.10;;;0.10;;
33579;SDS011;19909;43.644;-79.438;2023-02-28T06:00:58;0.10;;;0.10;;
33579;SDS011;19909;43.644;-79.438;2023-02-28T06:03:26;0.32;;;0.10;;
33579;SDS011;19909;43.644;-79.438;2023-02-28T06:05:53;0.28;;;0.13;;
33579;SDS011;19909;43.644;-79.438;2023-02-28T06:08:20;0.10;;;0.10;;
33579;SDS011;19909;43.644;-79.438;2023-02-28T06:10:46;0.10;;;0.10;;
33579;SDS011;19909;43.644;-79.438;2023-02-28T06:13:13;0.10;;;0.10;;
33579;SDS011;19909;43.644;-79.438;2023-02-28T06:15:40;0.45;;;0.10;;
33579;SDS011;19909;43.644;-79.438;2023-02-28T06:18:06;0.10;;;0.10;;
33579;SDS011;19909;43.644;-79.438;2023-02-28T06:20:32;0.20;;;0.10;;
33579;SDS011;19909;43.644;-79.438;2023-02-28T06:22:59;0.20;;;0.20;;
33579;SDS011;19909;43.644;-79.438;2023-02-28T06:25:26;0.38;;;0.15;;
33579;SDS011;19909;43.644;-79.438;2023-02-28T06:27:53;0.20;;;0.10;;
33579;SDS011;19909;43.644;-79.438;2023-02-28T06:30:20;0.10;;;0.10;;
33579;SDS011;19909;43.644;-79.438;2023-02-28T06:32:52;0.20;;;0.10;;
33579;SDS011;19909;43.644;-79.438;2023-02-28T06:35:18;0.10;;;0.10;;
33579;SDS011;19909;43.644;-79.438;2023-02-28T06:37:45;0.10;;;0.00;;
33579;SDS011;19909;43.644;-79.438;2023-02-28T06:40:12;0.10;;;0.10;;
33579;SDS011;19909;43.644;-79.438;2023-02-28T06:42:39;0.13;;;0.10;;
33579;SDS011;19909;43.644;-79.438;2023-02-28T06:45:05;0.28;;;0.10;;
33579;SDS011;19909;43.644;-79.438;2023-02-28T06:47:34;0.30;;;0.22;;
33579;SDS011;19909;43.644;-79.438;2023-02-28T06:50:02;0.22;;;0.10;;
33579;SDS011;19909;43.644;-79.438;2023-02-28T06:52:29;0.40;;;0.10;;
33579;SDS011;19909;43.644;-79.438;2023-02-28T06:54:55;0.20;;;0.10;;
33579;SDS011;19909;43.644;-79.438;2023-02-28T06:57:28;0.20;;;0.10;;
33579;SDS011;19909;43.644;-79.438;2023-02-28T06:59:58;0.17;;;0.10;;
33579;SDS011;19909;43.644;-79.438;2023-02-28T07:02:25;0.17;;;0.10;;
33579;SDS011;19909;43.644;-79.438;2023-02-28T07:04:52;0.60;;;0.10;;
33579;SDS011;19909;43.644;-79.438;2023-02-28T07:07:18;0.40;;;0.20;;
33579;SDS011;19909;43.644;-79.438;2023-02-28T07:09:44;0.20;;;0.20;;
33579;SDS011;19909;43.644;-79.438;2023-02-28T07:12:10;0.20;;;0.17;;
33579;SDS011;19909;43.644;-79.438;2023-02-28T07:14:37;0.25;;;0.22;;
33579;SDS011;19909;43.644;-79.438;2023-02-28T07:17:03;0.30;;;0.20;;
33579;SDS011;19909;43.644;-79.438;2023-02-28T07:19:29;0.32;;;0.25;;
33579;SDS011;19909;43.644;-79.438;2023-02-28T07:21:55;0.20;;;0.17;;
33579;SDS011;19909;43.644;-79.438;2023-02-28T07:24:21;0.30;;;0.10;;
33579;SDS011;19909;43.644;-79.438;2023-02-28T07:26:50;0.00;;;0.00;;
33579;SDS011;19909;43.644;-79.438;2023-02-28T07:29:17;0.10;;;0.10;;
33579;SDS011;19909;43.644;-79.438;2023-02-28T07:31:43;0.30;;;0.20;;
33579;SDS011;19909;43.644;-79.438;2023-02-28T07:34:09;0.30;;;0.30;;
33579;SDS011;19909;43.644;-79.438;2023-02-28T07:36:35;0.40;;;0.20;;
33579;SDS011;19909;43.644;-79.438;2023-02-28T07:39:01;0.10;;;0.10;;
33579;SDS011;19909;43.644;-79.438;2023-02-28T07:41:29;0.10;;;0.10;;
33579;SDS011;19909;43.644;-79.438;2023-02-28T07:43:59;0.20;;;0.17;;
33579;SDS011;19909;43.644;-79.438;2023-02-28T07:46:25;0.35;;;0.20;;
33579;SDS011;19909;43.644;-79.438;2023-02-28T07:48:52;0.40;;;0.22;;
33579;SDS011;19909;43.644;-79.438;2023-02-28T07:51:20;0.10;;;0.10;;
33579;SDS011;19909;43.644;-79.438;2023-02-28T07:53:47;0.30;;;0.20;;
33579;SDS011;19909;43.644;-79.438;2023-02-28T07:56:13;0.10;;;0.10;;
33579;SDS011;19909;43.644;-79.438;2023-02-28T07:58:39;0.30;;;0.25;;
33579;SDS011;19909;43.644;-79.438;2023-02-28T08:01:06;0.57;;;0.20;;
33579;SDS011;19909;43.644;-79.438;2023-02-28T08:03:33;0.20;;;0.10;;
33579;SDS011;19909;43.644;-79.438;2023-02-28T08:06:00;0.20;;;0.20;;
33579;SDS011;19909;43.644;-79.438;2023-02-28T08:08:28;0.47;;;0.13;;
33579;SDS011;19909;43.644;-79.438;2023-02-28T08:11:02;0.50;;;0.20;;
33579;SDS011;19909;43.644;-79.438;2023-02-28T08:13:29;0.30;;;0.25;;
33579;SDS011;19909;43.644;-79.438;2023-02-28T08:15:56;0.10;;;0.10;;
33579;SDS011;19909;43.644;-79.438;2023-02-28T08:18:22;0.38;;;0.20;;
33579;SDS011;19909;43.644;-79.438;2023-02-28T08:20:49;0.40;;;0.22;;
33579;SDS011;19909;43.644;-79.438;2023-02-28T08:23:15;0.25;;;0.15;;
33579;SDS011;19909;43.644;-79.438;2023-02-28T08:25:41;0.10;;;0.10;;
33579;SDS011;19909;43.644;-79.438;2023-02-28T08:28:07;0.35;;;0.20;;
33579;SDS011;19909;43.644;-79.438;2023-02-28T08:30:33;0.20;;;0.10;;
33579;SDS011;19909;43.644;-79.438;2023-02-28T08:32:59;0.70;;;0.40;;
33579;SDS011;19909;43.644;-79.438;2023-02-28T08:35:27;0.25;;;0.10;;
33579;SDS011;19909;43.644;-79.438;2023-02-28T08:37:53;0.40;;;0.20;;
33579;SDS011;19909;43.644;-79.438;2023-02-28T08:40:19;0.15;;;0.10;;
33579;SDS011;19909;43.644;-79.438;2023-02-28T08:42:45;0.47;;;0.20;;
33579;SDS011;19909;43.644;-79.438;2023-02-28T08:45:12;0.30;;;0.30;;
33579;SDS011;19909;43.644;-79.438;2023-02-28T08:47:40;0.20;;;0.20;;
33579;SDS011;19909;43.644;-79.438;2023-02-28T08:50:06;0.40;;;0.20;;
33579;SDS011;19909;43.644;-79.438;2023-02-28T08:52:33;0.15;;;0.10;;
33579;SDS011;19909;43.644;-79.438;2023-02-28T08:54:59;0.20;;;0.20;;
33579;SDS011;19909;43.644;-79.438;2023-02-28T08:57:25;0.10;;;0.10;;
33579;SDS011;19909;43.644;-79.438;2023-02-28T08:59:52;0.25;;;0.20;;
33579;SDS011;19909;43.644;-79.438;2023-02-28T09:02:18;0.10;;;0.10;;
33579;SDS011;19909;43.644;-79.438;2023-02-28T09:04:45;0.15;;;0.15;;
33579;SDS011;19909;43.644;-79.438;2023-02-28T09:07:11;0.20;;;0.20;;
33579;SDS011;19909;43.644;-79.438;2023-02-28T09:09:37;0.20;;;0.20;;
33579;SDS011;19909;43.644;-79.438;2023-02-28T09:12:19;0.40;;;0.20;;
33579;SDS011;19909;43.644;-79.438;2023-02-28T09:14:49;0.30;;;0.20;;
33579;SDS011;19909;43.644;-79.438;2023-02-28T09:17:16;0.20;;;0.20;;
33579;SDS011;19909;43.644;-79.438;2023-02-28T09:19:42;0.22;;;0.20;;
33579;SDS011;19909;43.644;-79.438;2023-02-28T09:22:09;0.40;;;0.20;;
33579;SDS011;19909;43.644;-79.438;2023-02-28T09:24:36;0.30;;;0.30;;
33579;SDS011;19909;43.644;-79.438;2023-02-28T09:27:03;0.40;;;0.40;;
33579;SDS011;19909;43.644;-79.438;2023-02-28T09:29:31;0.43;;;0.40;;
33579;SDS011;19909;43.644;-79.438;2023-02-28T09:31:58;0.80;;;0.80;;
33579;SDS011;19909;43.644;-79.438;2023-02-28T09:34:25;1.42;;;0.77;;
33579;SDS011;19909;43.644;-79.438;2023-02-28T09:36:52;0.40;;;0.40;;
33579;SDS011;19909;43.644;-79.438;2023-02-28T09:39:21;0.30;;;0.30;;
33579;SDS011;19909;43.644;-79.438;2023-02-28T09:41:48;0.40;;;0.40;;
33579;SDS011;19909;43.644;-79.438;2023-02-28T09:44:22;0.50;;;0.50;;
33579;SDS011;19909;43.644;-79.438;2023-02-28T09:47:08;1.50;;;0.50;;
33579;SDS011;19909;43.644;-79.438;2023-02-28T09:49:42;0.82;;;0.60;;
33579;SDS011;19909;43.644;-79.438;2023-02-28T09:52:21;1.25;;;0.70;;
33579;SDS011;19909;43.644;-79.438;2023-02-28T09:54:54;0.50;;;0.50;;
33579;SDS011;19909;43.644;-79.438;2023-02-28T10:02:52;0.80;;;0.70;;
33579;SDS011;19909;43.644;-79.438;2023-02-28T10:05:38;1.15;;;0.80;;
33579;SDS011;19909;43.644;-79.438;2023-02-28T10:08:25;0.90;;;0.70;;
33579;SDS011;19909;43.644;-79.438;2023-02-28T10:11:07;0.85;;;0.50;;
33579;SDS011;19909;43.644;-79.438;2023-02-28T10:16:28;0.80;;;0.45;;
33579;SDS011;19909;43.644;-79.438;2023-02-28T10:19:10;0.52;;;0.43;;
33579;SDS011;19909;43.644;-79.438;2023-02-28T10:24:40;1.05;;;0.60;;
33579;SDS011;19909;43.644;-79.438;2023-02-28T10:27:16;1.40;;;0.60;;
33579;SDS011;19909;43.644;-79.438;2023-02-28T10:29:54;0.30;;;0.30;;
33579;SDS011;19909;43.644;-79.438;2023-02-28T10:32:26;0.45;;;0.38;;
33579;SDS011;19909;43.644;-79.438;2023-02-28T10:42:57;0.45;;;0.35;;
33579;SDS011;19909;43.644;-79.438;2023-02-28T10:45:24;0.28;;;0.28;;
33579;SDS011;19909;43.644;-79.438;2023-02-28T10:50:26;0.60;;;0.43;;
33579;SDS011;19909;43.644;-79.438;2023-02-28T10:52:54;0.30;;;0.20;;
33579;SDS011;19909;43.644;-79.438;2023-02-28T10:55:29;0.30;;;0.30;;
33579;SDS011;19909;43.644;-79.438;2023-02-28T10:57:55;0.43;;;0.30;;
33579;SDS011;19909;43.644;-79.438;2023-02-28T11:00:23;1.48;;;0.52;;
33579;SDS011;19909;43.644;-79.438;2023-02-28T11:02:51;0.30;;;0.22;;
33579;SDS011;19909;43.644;-79.438;2023-02-28T11:07:55;0.20;;;0.20;;
33579;SDS011;19909;43.644;-79.438;2023-02-28T11:10:31;0.30;;;0.13;;
33579;SDS011;19909;43.644;-79.438;2023-02-28T11:12:59;0.60;;;0.30;;
33579;SDS011;19909;43.644;-79.438;2023-02-28T11:15:27;0.68;;;0.40;;
33579;SDS011;19909;43.644;-79.438;2023-02-28T11:17:59;0.47;;;0.30;;
33579;SDS011;19909;43.644;-79.438;2023-02-28T11:20:32;0.75;;;0.30;;
33579;SDS011;19909;43.644;-79.438;2023-02-28T11:23:00;0.20;;;0.20;;
33579;SDS011;19909;43.644;-79.438;2023-02-28T11:25:29;0.75;;;0.30;;
33579;SDS011;19909;43.644;-79.438;2023-02-28T11:27:59;0.88;;;0.38;;
33579;SDS011;19909;43.644;-79.438;2023-02-28T11:30:38;0.50;;;0.30;;
33579;SDS011;19909;43.644;-79.438;2023-02-28T11:38:42;1.25;;;0.40;;
33579;SDS011;19909;43.644;-79.438;2023-02-28T11:41:16;0.40;;;0.35;;
33579;SDS011;19909;43.644;-79.438;2023-02-28T11:46:58;0.93;;;0.40;;
33579;SDS011;19909;43.644;-79.438;2023-02-28T11:49:56;0.20;;;0.20;;
33579;SDS011;19909;43.644;-79.438;2023-02-28T11:52:40;0.50;;;0.30;;
33579;SDS011;19909;43.644;-79.438;2023-02-28T12:06:31;0.68;;;0.43;;
33579;SDS011;19909;43.644;-79.438;2023-02-28T12:09:12;0.47;;;0.30;;
33579;SDS011;19909;43.644;-79.438;2023-02-28T12:29:10;0.88;;;0.60;;
33579;SDS011;19909;43.644;-79.438;2023-02-28T12:31:49;0.65;;;0.35;;
33579;SDS011;19909;43.644;-79.438;2023-02-28T12:34:38;0.95;;;0.55;;
33579;SDS011;19909;43.644;-79.438;2023-02-28T12:37:28;0.90;;;0.50;;
33579;SDS011;19909;43.644;-79.438;2023-02-28T12:40:01;2.00;;;0.60;;
33579;SDS011;19909;43.644;-79.438;2023-02-28T12:42:39;1.25;;;0.60;;
33579;SDS011;19909;43.644;-79.438;2023-02-28T12:48:00;2.75;;;0.47;;
33579;SDS011;19909;43.644;-79.438;2023-02-28T12:50:29;1.70;;;0.68;;
33579;SDS011;19909;43.644;-79.438;2023-02-28T12:53:06;1.30;;;0.40;;
33579;SDS011;19909;43.644;-79.438;2023-02-28T12:55:46;1.15;;;0.70;;
33579;SDS011;19909;43.644;-79.438;2023-02-28T13:09:33;1.90;;;0.68;;
33579;SDS011;19909;43.644;-79.438;2023-02-28T13:11:59;0.75;;;0.45;;
33579;SDS011;19909;43.644;-79.438;2023-02-28T13:14:29;0.85;;;0.40;;
33579;SDS011;19909;43.644;-79.438;2023-02-28T13:19:29;0.68;;;0.43;;
33579;SDS011;19909;43.644;-79.438;2023-02-28T13:21:59;1.02;;;0.60;;
33579;SDS011;19909;43.644;-79.438;2023-02-28T13:24:41;1.05;;;0.50;;
33579;SDS011;19909;43.644;-79.438;2023-02-28T13:27:20;0.85;;;0.50;;
33579;SDS011;19909;43.644;-79.438;2023-02-28T13:29:51;1.00;;;0.50;;
33579;SDS011;19909;43.644;-79.438;2023-02-28T13:32:19;0.82;;;0.43;;
33579;SDS011;19909;43.644;-79.438;2023-02-28T13:39:47;0.75;;;0.60;;
33579;SDS011;19909;43.644;-79.438;2023-02-28T13:47:29;0.65;;;0.45;;
33579;SDS011;19909;43.644;-79.438;2023-02-28T13:52:53;0.70;;;0.50;;
33579;SDS011;19909;43.644;-79.438;2023-02-28T13:55:27;0.85;;;0.50;;
33579;SDS011;19909;43.644;-79.438;2023-02-28T13:58:12;0.50;;;0.40;;
33579;SDS011;19909;43.644;-79.438;2023-02-28T14:06:28;1.42;;;0.52;;
33579;SDS011;19909;43.644;-79.438;2023-02-28T14:09:02;0.95;;;0.45;;
33579;SDS011;19909;43.644;-79.438;2023-02-28T14:11:33;0.65;;;0.45;;
33579;SDS011;19909;43.644;-79.438;2023-02-28T14:14:05;0.55;;;0.40;;
33579;SDS011;19909;43.644;-79.438;2023-02-28T14:16:40;0.55;;;0.28;;
33579;SDS011;19909;43.644;-79.438;2023-02-28T14:22:04;0.73;;;0.40;;
33579;SDS011;19909;43.644;-79.438;2023-02-28T14:28:35;1.25;;;0.40;;
33579;SDS011;19909;43.644;-79.438;2023-02-28T14:30:53;0.63;;;0.40;;
33579;SDS011;19909;43.644;-79.438;2023-02-28T14:36:43;0.55;;;0.38;;
33579;SDS011;19909;43.644;-79.438;2023-02-28T14:39:14;0.50;;;0.30;;
33579;SDS011;19909;43.644;-79.438;2023-02-28T14:41:45;0.20;;;0.20;;
33579;SDS011;19909;43.644;-79.438;2023-02-28T14:44:21;0.25;;;0.25;;
33579;SDS011;19909;43.644;-79.438;2023-02-28T14:46:50;1.33;;;0.40;;
33579;SDS011;19909;43.644;-79.438;2023-02-28T14:52:01;0.55;;;0.25;;
33579;SDS011;19909;43.644;-79.438;2023-02-28T14:54:42;0.30;;;0.20;;
33579;SDS011;19909;43.644;-79.438;2023-02-28T14:57:29;0.52;;;0.52;;
33579;SDS011;19909;43.644;-79.438;2023-02-28T14:59:59;0.38;;;0.20;;
33579;SDS011;19909;43.644;-79.438;2023-02-28T15:02:30;0.45;;;0.20;;
33579;SDS011;19909;43.644;-79.438;2023-02-28T15:05:01;1.02;;;0.40;;
33579;SDS011;19909;43.644;-79.438;2023-02-28T15:07:48;0.47;;;0.25;;
33579;SDS011;19909;43.644;-79.438;2023-02-28T15:10:26;0.73;;;0.30;;
33579;SDS011;19909;43.644;-79.438;2023-02-28T15:12:55;0.15;;;0.10;;
33579;SDS011;19909;43.644;-79.438;2023-02-28T15:20:58;0.40;;;0.30;;
33579;SDS011;19909;43.644;-79.438;2023-02-28T15:23:34;0.43;;;0.35;;
33579;SDS011;19909;43.644;-79.438;2023-02-28T15:26:02;0.70;;;0.20;;
33579;SDS011;19909;43.644;-79.438;2023-02-28T15:28:29;0.60;;;0.60;;
33579;SDS011;19909;43.644;-79.438;2023-02-28T15:30:57;0.60;;;0.30;;
33579;SDS011;19909;43.644;-79.438;2023-02-28T15:33:27;0.95;;;0.30;;
33579;SDS011;19909;43.644;-79.438;2023-02-28T15:36:11;0.45;;;0.30;;
33579;SDS011;19909;43.644;-79.438;2023-02-28T15:38:42;0.43;;;0.20;;
33579;SDS011;19909;43.644;-79.438;2023-02-28T15:41:23;0.43;;;0.20;;
33579;SDS011;19909;43.644;-79.438;2023-02-28T15:46:42;0.43;;;0.20;;
33579;SDS011;19909;43.644;-79.438;2023-02-28T15:49:32;0.63;;;0.30;;
33579;SDS011;19909;43.644;-79.438;2023-02-28T15:52:16;0.40;;;0.30;;
33579;SDS011;19909;43.644;-79.438;2023-02-28T15:57:55;0.90;;;0.35;;
33579;SDS011;19909;43.644;-79.438;2023-02-28T16:00:26;0.20;;;0.20;;
33579;SDS011;19909;43.644;-79.438;2023-02-28T16:02:53;0.95;;;0.30;;
33579;SDS011;19909;43.644;-79.438;2023-02-28T16:07:55;0.45;;;0.20;;
33579;SDS011;19909;43.644;-79.438;2023-02-28T16:10:23;0.20;;;0.20;;
33579;SDS011;19909;43.644;-79.438;2023-02-28T16:12:53;0.22;;;0.20;;
33579;SDS011;19909;43.644;-79.438;2023-02-28T16:15:24;0.30;;;0.30;;
33579;SDS011;19909;43.644;-79.438;2023-02-28T16:17:54;0.17;;;0.10;;
33579;SDS011;19909;43.644;-79.438;2023-02-28T16:20:29;0.20;;;0.13;;
33579;SDS011;19909;43.644;-79.438;2023-02-28T16:22:56;0.47;;;0.30;;
33579;SDS011;19909;43.644;-79.438;2023-02-28T16:25:47;0.40;;;0.15;;
33579;SDS011;19909;43.644;-79.438;2023-02-28T16:28:17;0.25;;;0.20;;
33579;SDS011;19909;43.644;-79.438;2023-02-28T16:30:54;0.30;;;0.20;;
33579;SDS011;19909;43.644;-79.438;2023-02-28T16:33:21;0.65;;;0.43;;
33579;SDS011;19909;43.644;-79.438;2023-02-28T16:35:47;0.22;;;0.10;;
33579;SDS011;19909;43.644;-79.438;2023-02-28T16:38:13;0.25;;;0.10;;
33579;SDS011;19909;43.644;-79.438;2023-02-28T16:40:39;0.38;;;0.32;;
33579;SDS011;19909;43.644;-79.438;2023-02-28T16:43:14;0.13;;;0.10;;
33579;SDS011;19909;43.644;-79.438;2023-02-28T16:45:44;0.10;;;0.10;;
33579;SDS011;19909;43.644;-79.438;2023-02-28T16:48:12;0.38;;;0.20;;
33579;SDS011;19909;43.644;-79.438;2023-02-28T16:50:41;0.45;;;0.20;;
33579;SDS011;19909;43.644;-79.438;2023-02-28T16:53:11;0.47;;;0.10;;
33579;SDS011;19909;43.644;-79.438;2023-02-28T16:55:38;0.22;;;0.20;;
33579;SDS011;19909;43.644;-79.438;2023-02-28T16:58:05;0.17;;;0.10;;
33579;SDS011;19909;43.644;-79.438;2023-02-28T17:00:32;0.10;;;0.10;;
33579;SDS011;19909;43.644;-79.438;2023-02-28T17:02:58;0.63;;;0.25;;
33579;SDS011;19909;43.644;-79.438;2023-02-28T17:05:24;0.60;;;0.20;;
33579;SDS011;19909;43.644;-79.438;2023-02-28T17:07:54;0.40;;;0.30;;
33579;SDS011;19909;43.644;-79.438;2023-02-28T17:10:21;0.45;;;0.20;;
33579;SDS011;19909;43.644;-79.438;2023-02-28T17:12:49;0.40;;;0.20;;
33579;SDS011;19909;43.644;-79.438;2023-02-28T17:15:16;0.10;;;0.10;;
33579;SDS011;19909;43.644;-79.438;2023-02-28T17:17:44;0.15;;;0.10;;
33579;SDS011;19909;43.644;-79.438;2023-02-28T17:20:15;0.40;;;0.22;;
33579;SDS011;19909;43.644;-79.438;2023-02-28T17:22:42;0.60;;;0.20;;
33579;SDS011;19909;43.644;-79.438;2023-02-28T17:25:08;0.20;;;0.20;;
33579;SDS011;19909;43.644;-79.438;2023-02-28T17:27:36;0.20;;;0.10;;
33579;SDS011;19909;43.644;-79.438;2023-02-28T17:30:08;0.10;;;0.00;;
33579;SDS011;19909;43.644;-79.438;2023-02-28T17:35:01;0.50;;;0.47;;